首页
METAR-TAF:

METAR-TAF

机场 :

Wheeling - Ohio County Airport

惠灵, 西維吉尼亞州, 美国

纬度: 40-10-13N, 经度: 080-38-40W, 海拔: 364米

当前天气观测

该预报发布于13分钟前的07:17 UTC
风速4节,风向西
温度 18°C
湿度 94%
气压 1014 hPa
能見度: 12.9公里
少量云层高于700英尺
散云层高于2500英尺
多云层高于8000英尺

METAR: KHLG 230717Z AUTO 27004KT 8SM FEW007 SCT025 BKN080 18/17 A2995 RMK AO2 T01780172

时间: 03:30 (07:30 UTC)

预报

该预报发布于1小时和32分钟前的05:58 UTC
预报有效从23日的 06点(UTC)到 24日的 06点(UTC)
风速4节,风向多变
能見度: 10公里
多云层高于2500英尺
从 23日的 1500点(UTC)
风速8节,风向北转西北
能見度: 10公里
多云层高于3500英尺
从 23日的 2300点(UTC)
风速3节,风向多变
能見度: 10公里
天空无云

TAF: KHLG 230558Z 2306/2406 VRB04KT P6SM BKN025 FM231500 33008KT P6SM BKN035 FM232300 VRB03KT P6SM SKC

超过4000个机场的气象观测和天气预报(METAR&TAF报告)。

可查询的气象台以黄色和红色小点在地图上表示。

将鼠标移到小点上方,可查看气象台名称。

然后点击查看天气观测和预报。

如需切换地图:点击带黑十字的绿色按钮放大地图;点击带横线的绿色按钮缩小地图;或者点击绿色箭头查看邻近地区的地图。


METAR-TAF: